Time;durP1;ratioP1;P1;durP2;ratioP2;P2;SDS_P1;SDS_P2;PMS_P1;PMS_P2;Temp;Humidity;BMP_temperature;BMP_pressure;BME280_temperature;BME280_humidity;BME280_pressure;Samples;Min_cycle;Max_cycle;Signal;HPM_P1;HPM_P2
2022/07/31 00:00:28;;;;;;;;;;;;;;;29.25;39.43;100359.84;5067544;28;1890;-34
2022/07/31 00:02:54;;;;;;;;;;;;;;;29.22;39.38;100360.28;5068473;28;1980;-33
2022/07/31 00:05:19;;;;;;;;;;;;;;;29.23;39.60;100356.50;5078008;28;937;-33
2022/07/31 00:07:44;;;;;;;;;;;;;;;29.20;39.29;100355.06;5071240;28;981;-33
2022/07/31 00:10:09;;;;;;;;;;;;;;;29.11;39.83;100356.31;5074618;28;1084;-31
2022/07/31 00:12:35;;;;;;;;;;;;;;;29.13;39.39;100362.34;5072215;28;993;-36
2022/07/31 00:15:01;;;;;;;;;;;;;;;29.27;38.98;100365.91;5061046;28;1040;-30
2022/07/31 00:17:26;;;;;;;;;;;;;;;29.27;39.41;100365.06;5074872;28;1044;-33
2022/07/31 00:19:52;;;;;;;;;;;;;;;29.23;39.31;100363.81;5063183;28;1905;-31
2022/07/31 00:22:17;;;;;;;;;;;;;;;29.31;39.46;100369.03;5059465;28;1040;-31
2022/07/31 00:24:42;;;;;;;;;;;;;;;29.20;39.67;100367.75;5071934;28;1020;-33
2022/07/31 00:27:09;;;;;;;;;;;;;;;29.17;39.46;100371.72;5072693;28;1157;-32
2022/07/31 00:29:35;;;;;;;;;;;;;;;29.24;39.51;100384.44;5067127;28;1462;-34
2022/07/31 00:32:00;;;;;;;;;;;;;;;29.21;39.95;100385.69;5067455;28;997;-31
2022/07/31 00:34:25;;;;;;;;;;;;;;;29.23;39.71;100394.44;5066272;28;1983;-31
2022/07/31 00:36:50;;;;;;;;;;;;;;;29.16;39.43;100390.91;5068397;28;1052;-31
2022/07/31 00:39:16;;;;;;;;;;;;;;;29.09;39.44;100393.59;5063844;28;1017;-31
2022/07/31 00:41:42;;;;;;;;;;;;;;;29.16;39.64;100394.41;5075073;28;1906;-30
2022/07/31 00:44:07;;;;;;;;;;;;;;;29.16;39.55;100401.72;5072484;28;942;-32
2022/07/31 00:46:33;;;;;;;;;;;;;;;29.18;39.25;100397.75;5068492;28;942;-31
2022/07/31 00:48:58;;;;;;;;;;;;;;;29.21;39.79;100397.34;5069713;28;1111;-35
2022/07/31 00:51:24;;;;;;;;;;;;;;;29.19;39.49;100401.31;5066889;28;1221;-32
2022/07/31 00:53:49;;;;;;;;;;;;;;;29.21;39.90;100396.53;5069260;28;1036;-30
2022/07/31 00:56:14;;;;;;;;;;;;;;;29.13;39.82;100402.16;5072708;28;1084;-32
2022/07/31 00:58:39;;;;;;;;;;;;;;;29.20;40.14;100401.09;5066262;28;997;-34
2022/07/31 01:01:05;;;;;;;;;;;;;;;29.19;40.26;100401.31;5064064;28;1913;-30
2022/07/31 01:03:30;;;;;;;;;;;;;;;29.24;40.04;100397.97;5067392;28;2088;-34
2022/07/31 01:05:55;;;;;;;;;;;;;;;29.19;39.72;100407.56;5070279;28;1131;-32
2022/07/31 01:08:21;;;;;;;;;;;;;;;29.21;39.91;100397.34;5075124;28;981;-33
2022/07/31 01:10:46;;;;;;;;;;;;;;;29.09;39.94;100402.53;5066841;28;1222;-35
2022/07/31 01:13:43;;;;;;;;;;;;;;;29.18;39.89;100410.47;5065864;28;1032;-30
2022/07/31 01:16:09;;;;;;;;;;;;;;;29.19;39.63;100404.88;5033317;28;1175;-30
2022/07/31 01:18:35;;;;;;;;;;;;;;;29.14;39.94;100396.53;5072703;28;1128;-29
2022/07/31 01:21:01;;;;;;;;;;;;;;;29.18;39.58;100391.50;5063049;28;1918;-32
2022/07/31 01:23:27;;;;;;;;;;;;;;;29.17;39.99;100390.69;5069804;28;1060;-33
2022/07/31 01:26:15;;;;;;;;;;;;;;;29.22;39.58;100390.06;5065556;28;1198;-34
2022/07/31 01:28:59;;;;;;;;;;;;;;;29.24;40.18;100382.56;5018046;28;1102;-33
2022/07/31 01:31:51;;;;;;;;;;;;;;;29.20;39.82;100386.72;5063654;28;838;-31
2022/07/31 01:34:27;;;;;;;;;;;;;;;29.21;39.97;100375.69;5070790;28;1872;-32
2022/07/31 01:36:57;;;;;;;;;;;;;;;29.20;39.92;100378.59;5050802;28;974;-35
2022/07/31 01:39:22;;;;;;;;;;;;;;;29.17;40.17;100369.03;5068593;28;980;-35
2022/07/31 01:41:47;;;;;;;;;;;;;;;29.16;40.15;100370.03;5053687;28;1905;-33
2022/07/31 01:44:13;;;;;;;;;;;;;;;29.25;39.99;100373.41;5053987;28;974;-33
2022/07/31 01:46:38;;;;;;;;;;;;;;;29.29;40.22;100366.53;5046438;28;916;-33
2022/07/31 01:49:04;;;;;;;;;;;;;;;29.23;40.04;100361.94;5048027;28;1000;-32
2022/07/31 01:51:29;;;;;;;;;;;;;;;29.25;39.90;100357.13;5054142;28;1196;-31
2022/07/31 01:53:55;;;;;;;;;;;;;;;29.26;39.98;100357.97;5049836;28;1036;-32
2022/07/31 01:56:20;;;;;;;;;;;;;;;29.29;40.35;100354.84;5070418;28;1155;-29
2022/07/31 01:58:45;;;;;;;;;;;;;;;29.36;40.00;100344.88;5051628;28;1171;-32
2022/07/31 02:01:11;;;;;;;;;;;;;;;29.34;39.72;100353.19;5067483;28;1905;-32
2022/07/31 02:03:36;;;;;;;;;;;;;;;29.41;39.97;100339.63;5070573;28;1182;-33
2022/07/31 02:06:02;;;;;;;;;;;;;;;29.34;39.39;100341.53;5064797;28;942;-31
2022/07/31 02:08:28;;;;;;;;;;;;;;;29.46;39.19;100345.25;5050815;28;1005;-36
2022/07/31 02:10:53;;;;;;;;;;;;;;;29.40;38.95;100348.81;5051179;28;1530;-31
2022/07/31 02:13:18;;;;;;;;;;;;;;;29.34;39.37;100355.06;5051210;28;1024;-33
2022/07/31 02:15:44;;;;;;;;;;;;;;;29.40;39.40;100339.84;5055615;28;1180;-33
2022/07/31 02:18:09;;;;;;;;;;;;;;;29.34;39.08;100341.53;5048504;28;1041;-30
2022/07/31 02:20:34;;;;;;;;;;;;;;;29.36;39.35;100338.59;5062119;28;1914;-29
2022/07/31 02:23:00;;;;;;;;;;;;;;;29.37;39.00;100337.56;5051316;28;1196;-35
2022/07/31 02:25:25;;;;;;;;;;;;;;;29.41;39.04;100345.06;5067603;28;1060;-32
2022/07/31 02:27:51;;;;;;;;;;;;;;;29.47;38.61;100340.69;5059129;28;1012;-33
2022/07/31 02:30:16;;;;;;;;;;;;;;;29.48;38.53;100342.34;5075417;28;946;-30
2022/07/31 02:32:45;;;;;;;;;;;;;;;29.53;38.60;100344.44;5057518;28;1171;-30
2022/07/31 02:35:11;;;;;;;;;;;;;;;29.51;38.66;100339.22;5057513;28;920;-31
2022/07/31 02:37:36;;;;;;;;;;;;;;;29.54;38.69;100335.25;5073364;28;926;-31
2022/07/31 02:40:01;;;;;;;;;;;;;;;29.52;38.69;100331.91;5060067;28;1976;-35
2022/07/31 02:42:27;;;;;;;;;;;;;;;29.49;38.28;100335.06;5077140;28;973;-32
2022/07/31 02:44:52;;;;;;;;;;;;;;;29.48;38.33;100339.63;5054059;28;1069;-31
2022/07/31 02:47:17;;;;;;;;;;;;;;;29.51;38.39;100332.97;5061860;28;929;-33
2022/07/31 02:49:44;;;;;;;;;;;;;;;29.50;38.49;100328.56;5052382;28;1175;-30
2022/07/31 02:52:09;;;;;;;;;;;;;;;29.53;38.23;100336.31;5054808;28;993;-30
2022/07/31 02:54:35;;;;;;;;;;;;;;;29.52;38.20;100327.34;5060344;28;1033;-35
2022/07/31 02:57:01;;;;;;;;;;;;;;;29.56;37.86;100331.28;5074751;28;986;-34
2022/07/31 02:59:26;;;;;;;;;;;;;;;29.52;38.13;100332.75;5076487;28;921;-32
2022/07/31 03:01:51;;;;;;;;;;;;;;;29.56;37.96;100322.34;5067524;28;1953;-34
2022/07/31 03:04:16;;;;;;;;;;;;;;;29.52;38.05;100321.09;5069648;28;981;-34
2022/07/31 03:06:42;;;;;;;;;;;;;;;29.56;37.93;100322.34;5078827;28;1199;-29
2022/07/31 03:09:07;;;;;;;;;;;;;;;29.55;38.06;100317.94;5072732;28;1044;-33
2022/07/31 03:11:32;;;;;;;;;;;;;;;29.52;37.99;100312.94;5074577;28;1175;-34
2022/07/31 03:13:59;;;;;;;;;;;;;;;29.55;37.86;100316.09;5070651;28;1529;-33
2022/07/31 03:16:24;;;;;;;;;;;;;;;29.44;38.17;100314.00;5076140;28;1124;-32
2022/07/31 03:18:49;;;;;;;;;;;;;;;29.57;38.30;100318.59;5082429;28;965;-33
2022/07/31 03:21:15;;;;;;;;;;;;;;;29.62;38.07;100317.97;5070801;28;1969;-30
2022/07/31 03:23:40;;;;;;;;;;;;;;;29.58;37.93;100321.06;5080776;28;819;-35
2022/07/31 03:26:06;;;;;;;;;;;;;;;29.61;37.64;100319.88;5051057;28;1068;-31
2022/07/31 03:28:32;;;;;;;;;;;;;;;29.59;37.86;100316.53;5076543;28;922;-36
2022/07/31 03:30:57;;;;;;;;;;;;;;;29.53;38.11;100310.03;5073307;28;1228;-33
2022/07/31 03:33:23;;;;;;;;;;;;;;;29.54;37.88;100306.28;5067764;28;1320;-31
2022/07/31 03:35:48;;;;;;;;;;;;;;;29.52;38.42;100304.81;5064640;28;977;-29
2022/07/31 03:38:14;;;;;;;;;;;;;;;28.79;43.69;100308.13;5073788;28;1094;-32
2022/07/31 03:40:39;;;;;;;;;;;;;;;28.53;45.90;100307.00;5072908;28;1977;-31
2022/07/31 03:43:04;;;;;;;;;;;;;;;27.61;50.46;100308.78;5065278;28;1021;-34
2022/07/31 03:45:30;;;;;;;;;;;;;;;27.94;48.82;100306.53;5050359;28;1045;-32
2022/07/31 03:47:55;;;;;;;;;;;;;;;28.11;47.37;100301.63;5051119;28;1144;-33
2022/07/31 03:50:21;;;;;;;;;;;;;;;28.23;45.38;100291.88;5069704;28;1364;-35
2022/07/31 03:52:46;;;;;;;;;;;;;;;28.02;47.61;100300.94;5065727;28;1979;-33
2022/07/31 03:55:12;;;;;;;;;;;;;;;27.58;50.86;100292.13;5055488;28;1065;-31
2022/07/31 03:57:37;;;;;;;;;;;;;;;26.56;46.48;100287.69;5065618;28;1013;-31
2022/07/31 04:00:03;;;;;;;;;;;;;;;25.07;42.70;100281.81;5044672;28;1898;-43
2022/07/31 04:02:28;;;;;;;;;;;;;;;24.19;50.20;100292.75;5066634;28;1025;-44
2022/07/31 04:04:53;;;;;;;;;;;;;;;24.30;54.96;100286.13;5071838;28;1096;-45
2022/07/31 04:07:19;;;;;;;;;;;;;;;24.27;56.51;100287.34;5076453;28;1298;-45
2022/07/31 04:09:44;;;;;;;;;;;;;;;23.81;56.31;100277.19;5058664;28;1178;-46
2022/07/31 04:12:10;;;;;;;;;;;;;;;22.39;47.95;100277.13;5065408;28;960;-48
2022/07/31 04:14:35;;;;;;;;;;;;;;;20.79;54.27;100287.72;5072552;28;1167;-37
2022/07/31 04:17:00;;;;;;;;;;;;;;;20.84;54.74;100286.41;5064931;28;1214;-37
2022/07/31 04:19:29;;;;;;;;;;;;;;;20.68;54.75;100287.94;5067710;28;1032;-32
2022/07/31 04:21:55;;;;;;;;;;;;;;;20.50;54.15;100274.56;5070786;28;1980;-38
2022/07/31 04:24:20;;;;;;;;;;;;;;;20.28;53.86;100276.66;5067980;28;1842;-37
2022/07/31 04:26:48;;;;;;;;;;;;;;;20.08;53.78;100289.25;5069370;28;1064;-36
2022/07/31 04:29:13;;;;;;;;;;;;;;;19.87;53.88;100271.59;5050550;28;1054;-34
2022/07/31 04:31:38;;;;;;;;;;;;;;;19.72;53.91;100274.72;5072957;28;953;-34
2022/07/31 04:34:03;;;;;;;;;;;;;;;19.57;53.75;100280.50;5071481;28;1068;-38
2022/07/31 04:36:29;;;;;;;;;;;;;;;19.46;53.75;100278.00;5068747;28;973;-35
2022/07/31 04:38:54;;;;;;;;;;;;;;;19.39;53.65;100282.22;5073443;28;1174;-36
2022/07/31 04:41:20;;;;;;;;;;;;;;;19.26;54.06;100278.03;5075852;28;1910;-39
2022/07/31 04:43:45;;;;;;;;;;;;;;;19.22;54.39;100273.97;5075956;28;1183;-38
2022/07/31 04:46:10;;;;;;;;;;;;;;;19.08;54.83;100277.88;5077688;28;1001;-39
2022/07/31 04:48:36;;;;;;;;;;;;;;;18.95;54.95;100278.97;5067736;28;936;-38
2022/07/31 04:51:01;;;;;;;;;;;;;;;18.82;55.31;100283.72;5068455;28;988;-38
2022/07/31 04:53:26;;;;;;;;;;;;;;;18.85;55.65;100280.81;5047887;28;2551;-37
2022/07/31 04:58:36;;;;;;;;;;;;;;;18.82;56.18;100289.06;5073038;28;988;-36
2022/07/31 05:01:01;;;;;;;;;;;;;;;21.39;50.23;100295.28;5067957;28;1985;-34
2022/07/31 05:03:26;;;;;;;;;;;;;;;20.92;49.90;100291.84;5075609;28;1025;-38
2022/07/31 05:05:52;;;;;;;;;;;;;;;19.29;53.24;100282.22;5074673;28;1182;-39
2022/07/31 05:08:17;;;;;;;;;;;;;;;18.85;55.20;100283.47;5076140;28;970;-35
2022/07/31 05:13:26;;;;;;;;;;;;;;;18.69;55.85;100282.19;5063558;28;970;-35
2022/07/31 05:15:51;;;;;;;;;;;;;;;21.29;50.07;100282.00;5071630;28;1053;-38
2022/07/31 05:18:17;;;;;;;;;;;;;;;23.23;44.69;100292.38;5063377;28;1045;-36
2022/07/31 05:20:42;;;;;;;;;;;;;;;24.32;42.18;100297.56;5077004;28;1969;-34
2022/07/31 05:23:07;;;;;;;;;;;;;;;24.38;42.54;100298.69;5063950;28;2416;-39
2022/07/31 05:25:33;;;;;;;;;;;;;;;25.02;41.07;100299.53;5068554;28;1092;-40
2022/07/31 05:27:58;;;;;;;;;;;;;;;25.07;41.14;100289.88;5063039;28;997;-38
2022/07/31 05:30:23;;;;;;;;;;;;;;;25.47;40.58;100298.81;5072793;28;1076;-35
2022/07/31 05:32:48;;;;;;;;;;;;;;;25.42;40.38;100291.28;5070581;28;1131;-39
2022/07/31 05:35:14;;;;;;;;;;;;;;;24.95;42.71;100296.72;5073207;28;1130;-39
2022/07/31 05:37:39;;;;;;;;;;;;;;;22.47;54.37;100303.94;5073587;28;1135;-38
2022/07/31 05:40:05;;;;;;;;;;;;;;;24.14;45.68;100297.78;5075499;28;1870;-36
2022/07/31 05:42:30;;;;;;;;;;;;;;;21.94;53.04;100305.91;5075033;28;1162;-38
2022/07/31 05:44:55;;;;;;;;;;;;;;;23.57;48.92;100303.94;5064962;28;1060;-36
2022/07/31 05:47:20;;;;;;;;;;;;;;;22.45;51.69;100303.28;5067565;28;953;-37
2022/07/31 05:49:46;;;;;;;;;;;;;;;23.09;51.64;100301.91;5066749;28;1456;-38
2022/07/31 05:52:11;;;;;;;;;;;;;;;23.94;47.83;100298.19;5071992;28;1016;-39
2022/07/31 05:54:36;;;;;;;;;;;;;;;22.23;56.24;100297.50;5068575;28;2739;-38
2022/07/31 05:57:01;;;;;;;;;;;;;;;24.05;48.12;100295.13;5073599;28;1008;-38
2022/07/31 05:59:27;;;;;;;;;;;;;;;22.16;53.36;100299.13;5051173;28;1109;-37
2022/07/31 06:01:52;;;;;;;;;;;;;;;22.89;54.32;100295.22;5067913;28;1922;-38
2022/07/31 06:04:18;;;;;;;;;;;;;;;24.44;48.02;100301.53;5073638;28;1088;-38
2022/07/31 06:06:43;;;;;;;;;;;;;;;21.80;54.83;100296.59;5064864;28;977;-41
2022/07/31 06:09:08;;;;;;;;;;;;;;;23.25;52.83;100286.84;5073588;28;1157;-43
2022/07/31 06:11:33;;;;;;;;;;;;;;;24.00;48.63;100292.09;5069248;28;965;-41
2022/07/31 06:13:59;;;;;;;;;;;;;;;22.13;55.33;100294.94;5066441;28;985;-42
2022/07/31 06:16:24;;;;;;;;;;;;;;;24.17;48.56;100292.06;5068103;28;980;-41
2022/07/31 06:18:49;;;;;;;;;;;;;;;22.86;51.81;100286.47;5068830;28;1048;-42
2022/07/31 06:21:15;;;;;;;;;;;;;;;22.20;57.82;100288.94;5070721;28;1974;-41
2022/07/31 06:23:40;;;;;;;;;;;;;;;24.42;48.16;100289.28;5065002;28;2610;-43
2022/07/31 06:26:05;;;;;;;;;;;;;;;22.48;53.02;100294.91;5066243;28;1323;-41
2022/07/31 06:28:31;;;;;;;;;;;;;;;22.81;55.89;100288.81;5069098;28;1029;-42
2022/07/31 06:30:56;;;;;;;;;;;;;;;24.86;46.32;100289.69;5071379;28;965;-41
2022/07/31 06:33:21;;;;;;;;;;;;;;;22.18;53.98;100294.47;5070542;28;1225;-41
2022/07/31 06:35:47;;;;;;;;;;;;;;;22.82;55.42;100295.84;5070387;28;1136;-41
2022/07/31 06:38:12;;;;;;;;;;;;;;;24.80;47.11;100289.38;5074489;28;1012;-42
2022/07/31 06:40:37;;;;;;;;;;;;;;;22.11;54.33;100293.41;5062335;28;1967;-40
2022/07/31 06:43:03;;;;;;;;;;;;;;;22.58;56.78;100276.00;5069491;28;969;-41
2022/07/31 06:45:28;;;;;;;;;;;;;;;24.71;47.47;100287.75;5062335;28;938;-41
2022/07/31 06:47:54;;;;;;;;;;;;;;;22.19;53.97;100273.88;5069042;28;1000;-41
2022/07/31 06:50:19;;;;;;;;;;;;;;;21.88;57.74;100277.91;5056913;28;994;-41
2022/07/31 06:52:44;;;;;;;;;;;;;;;24.23;48.97;100274.41;5065043;28;2706;-43
2022/07/31 06:55:09;;;;;;;;;;;;;;;22.61;52.57;100270.34;5071254;28;1008;-43
2022/07/31 06:57:36;;;;;;;;;;;;;;;21.58;56.21;100267.50;5072609;28;945;-40
2022/07/31 07:00:01;;;;;;;;;;;;;;;23.90;50.06;100268.13;5067354;28;1965;-42
2022/07/31 07:02:26;;;;;;;;;;;;;;;23.04;51.44;100268.56;5072248;28;1090;-44
2022/07/31 07:04:52;;;;;;;;;;;;;;;21.56;55.92;100274.00;5074607;28;1111;-43
2022/07/31 07:07:17;;;;;;;;;;;;;;;23.14;53.67;100265.72;5072195;28;961;-42
2022/07/31 07:09:42;;;;;;;;;;;;;;;24.19;48.44;100265.88;5063272;28;1259;-42
2022/07/31 07:12:07;;;;;;;;;;;;;;;21.87;54.66;100266.34;5066723;28;1004;-42
2022/07/31 07:14:33;;;;;;;;;;;;;;;21.96;58.49;100263.72;5073600;28;1017;-42
2022/07/31 07:17:01;;;;;;;;;;;;;;;24.31;48.45;100263.59;5075061;28;1187;-40
2022/07/31 07:19:26;;;;;;;;;;;;;;;22.21;53.47;100253.94;5070223;28;1044;-40
2022/07/31 07:21:51;;;;;;;;;;;;;;;21.94;58.08;100258.53;5063940;28;1913;-42
2022/07/31 07:24:16;;;;;;;;;;;;;;;24.38;48.10;100253.84;5072820;28;2480;-41
2022/07/31 07:26:42;;;;;;;;;;;;;;;22.40;51.97;100246.66;5066792;28;1148;-42
2022/07/31 07:29:09;;;;;;;;;;;;;;;22.79;54.50;100252.44;5075714;28;1520;-43
2022/07/31 07:31:34;;;;;;;;;;;;;;;24.81;46.10;100263.31;5067032;28;1615;-43
2022/07/31 07:34:00;;;;;;;;;;;;;;;22.13;53.63;100251.25;5071593;28;1032;-43
2022/07/31 07:36:25;;;;;;;;;;;;;;;21.43;56.21;100251.19;5065592;28;977;-41
2022/07/31 07:38:52;;;;;;;;;;;;;;;23.81;50.06;100253.03;5068021;28;1119;-41
2022/07/31 07:41:17;;;;;;;;;;;;;;;23.04;50.25;100250.59;5073766;28;1902;-41
2022/07/31 07:43:43;;;;;;;;;;;;;;;21.91;56.21;100245.47;5071173;28;1060;-43
2022/07/31 07:46:08;;;;;;;;;;;;;;;24.29;48.10;100246.84;5075311;28;1072;-41
2022/07/31 07:48:34;;;;;;;;;;;;;;;22.70;51.49;100244.41;5071033;28;981;-43
2022/07/31 07:50:59;;;;;;;;;;;;;;;21.46;55.74;100244.66;5071830;28;1103;-43
2022/07/31 07:53:24;;;;;;;;;;;;;;;22.89;53.71;100239.69;5074039;28;2398;-41
2022/07/31 07:55:50;;;;;;;;;;;;;;;24.41;48.13;100236.50;5078273;28;1210;-43
2022/07/31 07:58:15;;;;;;;;;;;;;;;21.76;53.46;100245.19;5073524;28;1025;-41
2022/07/31 08:00:40;;;;;;;;;;;;;;;23.42;51.38;100242.03;5068134;28;1969;-40
2022/07/31 08:03:06;;;;;;;;;;;;;;;24.13;48.05;100239.66;5071498;28;1271;-40
2022/07/31 08:05:31;;;;;;;;;;;;;;;21.95;54.15;100240.63;5068642;28;1274;-42
2022/07/31 08:07:56;;;;;;;;;;;;;;;21.29;56.15;100236.53;5069249;28;1176;-41
2022/07/31 08:10:22;;;;;;;;;;;;;;;22.83;53.51;100246.59;5071208;28;1291;-40
2022/07/31 08:12:49;;;;;;;;;;;;;;;24.46;47.55;100244.88;5072548;28;1227;-42
2022/07/31 08:15:15;;;;;;;;;;;;;;;21.62;52.92;100250.13;5069838;28;1262;-41
2022/07/31 08:17:40;;;;;;;;;;;;;;;23.64;50.19;100252.25;5070960;28;1227;-42
2022/07/31 08:20:06;;;;;;;;;;;;;;;23.70;48.02;100248.88;5071354;28;1981;-42
2022/07/31 08:22:31;;;;;;;;;;;;;;;21.56;52.91;100245.41;5070810;28;2464;-41
2022/07/31 08:24:56;;;;;;;;;;;;;;;23.87;48.50;100248.84;5046347;28;1231;-41
2022/07/31 08:27:25;;;;;;;;;;;;;;;23.44;48.13;100248.09;5066585;28;989;-37
2022/07/31 08:29:51;;;;;;;;;;;;;;;21.51;52.86;100248.56;5072564;28;996;-41
2022/07/31 08:32:16;;;;;;;;;;;;;;;23.81;48.49;100247.66;5068282;28;1166;-41
2022/07/31 08:34:42;;;;;;;;;;;;;;;23.31;47.89;100242.38;5076840;28;1251;-42
2022/07/31 08:37:07;;;;;;;;;;;;;;;21.56;52.98;100244.56;5065780;28;1163;-42
2022/07/31 08:39:33;;;;;;;;;;;;;;;23.95;47.66;100235.38;5071772;28;1286;-42
2022/07/31 08:41:58;;;;;;;;;;;;;;;23.07;48.77;100239.53;5068102;28;1886;-43
2022/07/31 08:44:23;;;;;;;;;;;;;;;21.56;53.59;100239.19;5071846;28;1395;-41
2022/07/31 08:46:49;;;;;;;;;;;;;;;21.95;56.77;100236.13;5046604;28;1430;-41
2022/07/31 08:49:14;;;;;;;;;;;;;;;24.52;46.02;100238.81;5057231;28;1062;-43
2022/07/31 08:51:40;;;;;;;;;;;;;;;22.22;50.47;100230.69;5070341;28;1017;-41
2022/07/31 08:54:05;;;;;;;;;;;;;;;22.54;53.67;100231.75;5048198;28;2531;-42
2022/07/31 08:56:32;;;;;;;;;;;;;;;24.82;44.61;100232.72;5069577;28;1273;-39
2022/07/31 08:58:57;;;;;;;;;;;;;;;22.17;51.48;100216.94;5070218;28;1162;-42
2022/07/31 09:01:23;;;;;;;;;;;;;;;21.30;54.50;100219.50;5069335;28;1961;-45
2022/07/31 09:03:48;;;;;;;;;;;;;;;22.90;51.76;100224.47;5070623;28;1206;-43
2022/07/31 09:06:13;;;;;;;;;;;;;;;24.30;46.14;100221.63;5053696;28;1041;-42
2022/07/31 09:08:39;;;;;;;;;;;;;;;21.53;51.83;100222.50;5051852;28;1262;-40
2022/07/31 09:11:06;;;;;;;;;;;;;;;23.42;48.93;100214.38;5067186;28;1132;-42
2022/07/31 09:13:33;;;;;;;;;;;;;;;23.65;46.95;100216.34;5051322;28;1021;-41
2022/07/31 09:15:58;;;;;;;;;;;;;;;21.62;52.51;100212.66;5063122;28;1329;-42
2022/07/31 09:18:24;;;;;;;;;;;;;;;22.09;54.50;100207.88;5073183;28;1247;-41
2022/07/31 09:20:53;;;;;;;;;;;;;;;24.56;45.18;100221.28;5063319;28;1977;-40
2022/07/31 09:23:19;;;;;;;;;;;;;;;22.15;51.06;100222.47;5068354;28;2410;-43
2022/07/31 09:25:53;;;;;;;;;;;;;;;21.88;55.48;100216.31;5068603;28;1056;-43
2022/07/31 09:28:19;;;;;;;;;;;;;;;24.50;45.55;100216.63;5075927;28;1151;-43
2022/07/31 09:30:53;;;;;;;;;;;;;;;22.18;50.93;100216.78;5052095;28;985;-44
2022/07/31 09:33:20;;;;;;;;;;;;;;;21.64;55.48;100217.84;5067458;28;1009;-43
2022/07/31 09:35:49;;;;;;;;;;;;;;;24.08;46.76;100218.69;5067872;28;980;-43
2022/07/31 09:38:14;;;;;;;;;;;;;;;22.40;50.26;100214.50;5062274;28;1036;-43
2022/07/31 09:40:42;;;;;;;;;;;;;;;21.41;53.76;100213.03;5070511;28;2031;-44
2022/07/31 09:43:18;;;;;;;;;;;;;;;23.70;48.03;100216.66;5072534;28;1105;-42
2022/07/31 09:45:45;;;;;;;;;;;;;;;22.74;49.19;100208.19;5058904;28;974;-43
2022/07/31 09:48:13;;;;;;;;;;;;;;;21.34;53.78;100207.47;5068081;28;1146;-42
2022/07/31 09:50:51;;;;;;;;;;;;;;;23.47;49.07;100207.47;5070864;28;1143;-43
2022/07/31 09:53:17;;;;;;;;;;;;;;;23.12;48.06;100218.41;5064338;28;2567;-43
2022/07/31 09:55:48;;;;;;;;;;;;;;;22.07;54.31;100227.78;5045847;28;1045;-43
2022/07/31 09:58:13;;;;;;;;;;;;;;;24.53;45.50;100223.50;5062589;28;969;-43
2022/07/31 10:00:38;;;;;;;;;;;;;;;22.62;50.08;100215.72;5071107;28;1902;-44
2022/07/31 10:03:03;;;;;;;;;;;;;;;21.51;53.91;100213.78;5063820;28;988;-43
2022/07/31 10:05:30;;;;;;;;;;;;;;;21.84;56.21;100223.84;5069116;28;954;-43
2022/07/31 10:07:56;;;;;;;;;;;;;;;24.45;46.12;100219.88;5050000;28;1021;-44
2022/07/31 10:10:21;;;;;;;;;;;;;;;22.38;50.31;100209.28;5070694;28;1350;-43
2022/07/31 10:12:49;;;;;;;;;;;;;;;22.01;55.90;100224.75;5070865;28;1043;-42
2022/07/31 10:15:15;;;;;;;;;;;;;;;24.59;45.46;100220.09;5064943;28;997;-43
2022/07/31 10:17:41;;;;;;;;;;;;;;;22.35;50.11;100217.66;5073171;28;1068;-44
2022/07/31 10:20:07;;;;;;;;;;;;;;;22.12;55.21;100217.44;5063159;28;1902;-43
2022/07/31 10:22:44;;;;;;;;;;;;;;;24.65;45.38;100216.69;5070544;28;2542;-44
2022/07/31 10:25:12;;;;;;;;;;;;;;;22.27;50.44;100217.66;5054407;28;1040;-42
2022/07/31 10:27:37;;;;;;;;;;;;;;;22.10;55.78;100209.56;5062223;28;1143;-43
2022/07/31 10:30:04;;;;;;;;;;;;;;;24.66;45.29;100217.53;5074289;28;1024;-43
2022/07/31 10:32:29;;;;;;;;;;;;;;;22.41;49.95;100215.31;5056739;28;1179;-43
2022/07/31 10:34:54;;;;;;;;;;;;;;;21.92;55.61;100216.84;5041463;28;1102;-43
2022/07/31 10:37:37;;;;;;;;;;;;;;;24.49;45.63;100211.44;5072276;28;1060;-42
2022/07/31 10:40:02;;;;;;;;;;;;;;;22.13;50.36;100213.75;5055900;28;1956;-42
2022/07/31 10:42:31;;;;;;;;;;;;;;;22.17;54.90;100207.03;5069184;28;1060;-42
2022/07/31 10:45:02;;;;;;;;;;;;;;;24.66;44.62;100215.69;5068888;28;1049;-42
2022/07/31 10:47:28;;;;;;;;;;;;;;;22.12;49.81;100207.53;5071533;28;1160;-41
2022/07/31 10:49:53;;;;;;;;;;;;;;;22.70;51.59;100209.53;5072596;28;973;-43
2022/07/31 10:52:27;;;;;;;;;;;;;;;24.94;43.83;100212.47;5078376;28;1025;-43
2022/07/31 10:54:56;;;;;;;;;;;;;;;21.82;50.51;100208.94;5073554;28;953;-41
2022/07/31 10:57:22;;;;;;;;;;;;;;;23.20;49.22;100211.38;5073147;28;1005;-43
2022/07/31 10:59:47;;;;;;;;;;;;;;;24.32;44.92;100206.16;5073473;28;1112;-43
2022/07/31 11:02:12;;;;;;;;;;;;;;;21.87;51.65;100207.44;5059350;28;1981;-42
2022/07/31 11:04:38;;;;;;;;;;;;;;;21.50;54.09;100200.56;5068858;28;1192;-44
2022/07/31 11:07:13;;;;;;;;;;;;;;;24.03;46.88;100207.63;5075681;28;1028;-42
2022/07/31 11:09:38;;;;;;;;;;;;;;;22.50;48.70;100196.41;5073480;28;1315;-43
2022/07/31 11:12:03;;;;;;;;;;;;;;;22.11;54.47;100192.47;5077299;28;1000;-42
2022/07/31 11:14:33;;;;;;;;;;;;;;;24.58;44.33;100196.91;5055310;28;1366;-43
2022/07/31 11:16:58;;;;;;;;;;;;;;;22.11;49.48;100196.97;5066141;28;965;-43
2022/07/31 11:19:23;;;;;;;;;;;;;;;22.85;50.65;100198.16;5071793;28;953;-43
2022/07/31 11:21:49;;;;;;;;;;;;;;;24.93;44.09;100200.03;5078055;28;1910;-43
2022/07/31 11:24:14;;;;;;;;;;;;;;;22.06;50.88;100199.31;5072121;28;2524;-43
2022/07/31 11:26:52;;;;;;;;;;;;;;;21.25;53.64;100201.22;5063398;28;1016;-44
2022/07/31 11:29:34;;;;;;;;;;;;;;;23.45;48.75;100206.84;5065789;28;1143;-43
2022/07/31 11:32:10;;;;;;;;;;;;;;;22.96;47.60;100192.44;5069049;28;1156;-43
2022/07/31 11:34:48;;;;;;;;;;;;;;;22.14;54.28;100202.88;5062565;28;1052;-42
2022/07/31 11:37:17;;;;;;;;;;;;;;;24.74;44.20;100204.00;5066326;28;1044;-43
2022/07/31 11:39:42;;;;;;;;;;;;;;;22.14;49.83;100194.81;5074090;28;1357;-43
2022/07/31 11:42:07;;;;;;;;;;;;;;;22.53;52.61;100191.72;5073260;28;1967;-44
2022/07/31 11:44:33;;;;;;;;;;;;;;;24.73;43.76;100193.44;5071391;28;1055;-43
2022/07/31 11:46:58;;;;;;;;;;;;;;;22.67;50.19;100183.03;5077823;28;1095;-43
2022/07/31 11:49:23;;;;;;;;;;;;;;;22.13;53.93;100189.63;5074488;28;1194;-44
2022/07/31 11:51:49;;;;;;;;;;;;;;;22.01;54.44;100183.72;5062720;28;882;-39
2022/07/31 11:54:21;;;;;;;;;;;;;;;23.36;51.77;100183.66;5068339;28;2329;-40
2022/07/31 11:56:46;;;;;;;;;;;;;;;22.60;53.37;100177.53;5070758;28;976;-43
2022/07/31 11:59:11;;;;;;;;;;;;;;;21.70;55.77;100176.22;5069864;28;1191;-43
2022/07/31 12:01:37;;;;;;;;;;;;;;;21.38;56.64;100178.56;5077798;28;1894;-42
2022/07/31 12:04:02;;;;;;;;;;;;;;;21.22;57.12;100172.09;5067787;28;1006;-42
2022/07/31 12:06:27;;;;;;;;;;;;;;;21.13;57.85;100171.22;5050285;28;1148;-43
2022/07/31 12:08:52;;;;;;;;;;;;;;;21.50;58.15;100171.13;5072682;28;1032;-42
2022/07/31 12:11:18;;;;;;;;;;;;;;;23.87;50.08;100177.16;5055570;28;1196;-43
2022/07/31 12:13:45;;;;;;;;;;;;;;;22.84;51.46;100165.13;5051419;28;1065;-43
2022/07/31 12:16:10;;;;;;;;;;;;;;;21.68;56.08;100168.34;5070112;28;871;-43
2022/07/31 12:18:45;;;;;;;;;;;;;;;21.25;56.96;100165.63;5075888;28;1102;-43
2022/07/31 12:21:11;;;;;;;;;;;;;;;21.12;57.67;100160.69;5064945;28;1965;-44
2022/07/31 12:23:39;;;;;;;;;;;;;;;21.00;58.02;100163.59;5071059;28;2535;-43
2022/07/31 12:26:05;;;;;;;;;;;;;;;21.04;58.13;100164.13;5068074;28;1108;-43
2022/07/31 12:28:30;;;;;;;;;;;;;;;23.50;51.39;100154.47;5050995;28;1088;-43
2022/07/31 12:30:58;;;;;;;;;;;;;;;22.80;51.11;100147.72;5064337;28;1242;-43
2022/07/31 12:33:26;;;;;;;;;;;;;;;21.25;55.02;100149.56;5075129;28;1464;-42
2022/07/31 12:35:51;;;;;;;;;;;;;;;23.65;50.13;100152.75;5057513;28;1175;-42
2022/07/31 12:38:23;;;;;;;;;;;;;;;22.85;50.51;100153.41;5058970;28;1087;-43
2022/07/31 12:40:49;;;;;;;;;;;;;;;21.23;54.55;100147.06;5073606;28;1934;-42
2022/07/31 12:43:14;;;;;;;;;;;;;;;23.28;50.22;100148.78;5070508;28;985;-42
2022/07/31 12:45:39;;;;;;;;;;;;;;;23.64;49.35;100150.22;5067094;28;1127;-43
2022/07/31 12:48:05;;;;;;;;;;;;;;;21.92;53.95;100140.00;5072770;28;1056;-43